sensor_id;sensor_type;location;lat;lon;timestamp;temperature;humidity
24632;DHT22;59977;48.782;9.190;2024-03-29T17:45:22;15.80;99.90
24632;DHT22;59977;48.782;9.190;2024-03-29T17:47:49;15.70;99.90
24632;DHT22;59977;48.782;9.190;2024-03-29T17:50:14;15.60;99.90
24632;DHT22;59977;48.782;9.190;2024-03-29T17:52:41;15.60;99.90
24632;DHT22;59977;48.782;9.190;2024-03-29T17:55:07;15.60;99.90
24632;DHT22;59977;48.782;9.190;2024-03-29T17:57:33;15.50;99.90
24632;DHT22;59977;48.782;9.190;2024-03-29T17:59:58;15.50;99.90
24632;DHT22;59977;48.782;9.190;2024-03-29T18:02:26;15.40;99.90
24632;DHT22;59977;48.782;9.190;2024-03-29T18:04:52;15.40;99.90
24632;DHT22;59977;48.782;9.190;2024-03-29T18:07:17;15.30;99.90
24632;DHT22;59977;48.782;9.190;2024-03-29T18:09:43;15.30;99.90
24632;DHT22;59977;48.782;9.190;2024-03-29T18:12:08;15.30;99.90
24632;DHT22;59977;48.782;9.190;2024-03-29T18:14:34;15.30;99.90
24632;DHT22;59977;48.782;9.190;2024-03-29T18:17:02;15.20;99.90
24632;DHT22;59977;48.782;9.190;2024-03-29T18:19:28;15.20;99.90
24632;DHT22;59977;48.782;9.190;2024-03-29T18:21:54;15.20;99.90
24632;DHT22;59977;48.782;9.190;2024-03-29T18:24:20;15.10;99.90
24632;DHT22;59977;48.782;9.190;2024-03-29T18:26:45;15.10;99.90
24632;DHT22;59977;48.782;9.190;2024-03-29T18:29:12;15.10;99.90
24632;DHT22;59977;48.782;9.190;2024-03-29T18:31:37;15.10;99.90
24632;DHT22;59977;48.782;9.190;2024-03-29T18:34:03;15.10;99.90
24632;DHT22;59977;48.782;9.190;2024-03-29T18:36:29;15.10;99.90
24632;DHT22;59977;48.782;9.190;2024-03-29T18:38:55;15.00;99.90
24632;DHT22;59977;48.782;9.190;2024-03-29T18:41:21;15.00;99.90
24632;DHT22;59977;48.782;9.190;2024-03-29T18:43:49;14.90;99.90
24632;DHT22;59977;48.782;9.190;2024-03-29T18:46:14;14.90;99.90
24632;DHT22;59977;48.782;9.190;2024-03-29T18:48:42;14.90;99.90
24632;DHT22;59977;48.782;9.190;2024-03-29T18:51:08;14.90;99.90
24632;DHT22;59977;48.782;9.190;2024-03-29T18:53:33;14.90;99.90
24632;DHT22;59977;48.782;9.190;2024-03-29T18:56:02;14.80;99.90
24632;DHT22;59977;48.782;9.190;2024-03-29T18:58:29;14.80;99.90
24632;DHT22;59977;48.782;9.190;2024-03-29T19:00:55;14.80;99.90
24632;DHT22;59977;48.782;9.190;2024-03-29T19:03:26;14.70;99.90
24632;DHT22;59977;48.782;9.190;2024-03-29T19:05:52;14.70;99.90
24632;DHT22;59977;48.782;9.190;2024-03-29T19:08:19;14.70;99.90
24632;DHT22;59977;48.782;9.190;2024-03-29T19:10:45;14.70;99.90
24632;DHT22;59977;48.782;9.190;2024-03-29T19:13:11;14.60;99.90
24632;DHT22;59977;48.782;9.190;2024-03-29T19:15:36;14.60;99.90
24632;DHT22;59977;48.782;9.190;2024-03-29T19:18:03;14.60;99.90
24632;DHT22;59977;48.782;9.190;2024-03-29T19:20:30;14.60;99.90
24632;DHT22;59977;48.782;9.190;2024-03-29T19:22:55;14.60;99.90
24632;DHT22;59977;48.782;9.190;2024-03-29T19:25:21;14.60;99.90
24632;DHT22;59977;48.782;9.190;2024-03-29T19:27:47;14.50;99.90
24632;DHT22;59977;48.782;9.190;2024-03-29T19:30:13;14.50;99.90
24632;DHT22;59977;48.782;9.190;2024-03-29T19:32:38;14.50;99.90
24632;DHT22;59977;48.782;9.190;2024-03-29T19:35:04;14.50;99.90
24632;DHT22;59977;48.782;9.190;2024-03-29T19:37:30;14.50;99.90
24632;DHT22;59977;48.782;9.190;2024-03-29T19:39:56;14.50;99.90
24632;DHT22;59977;48.782;9.190;2024-03-29T19:42:22;14.40;99.90
24632;DHT22;59977;48.782;9.190;2024-03-29T19:44:48;14.40;99.90
24632;DHT22;59977;48.782;9.190;2024-03-29T19:47:14;14.40;99.90
24632;DHT22;59977;48.782;9.190;2024-03-29T19:49:39;14.40;99.90
24632;DHT22;59977;48.782;9.190;2024-03-29T19:52:05;14.50;99.90
24632;DHT22;59977;48.782;9.190;2024-03-29T19:54:31;14.40;99.90
24632;DHT22;59977;48.782;9.190;2024-03-29T19:56:57;14.30;99.90
24632;DHT22;59977;48.782;9.190;2024-03-29T19:59:22;14.20;99.90
24632;DHT22;59977;48.782;9.190;2024-03-29T20:01:48;14.30;99.90
24632;DHT22;59977;48.782;9.190;2024-03-29T20:04:14;14.20;99.90
24632;DHT22;59977;48.782;9.190;2024-03-29T20:06:39;14.20;99.90
24632;DHT22;59977;48.782;9.190;2024-03-29T20:09:05;14.20;99.90
24632;DHT22;59977;48.782;9.190;2024-03-29T20:11:32;14.20;99.90
24632;DHT22;59977;48.782;9.190;2024-03-29T20:13:58;14.20;99.90
24632;DHT22;59977;48.782;9.190;2024-03-29T20:16:24;14.20;99.90
24632;DHT22;59977;48.782;9.190;2024-03-29T20:18:51;14.00;99.90
24632;DHT22;59977;48.782;9.190;2024-03-29T20:21:19;14.10;99.90
24632;DHT22;59977;48.782;9.190;2024-03-29T20:23:44;14.10;99.90
24632;DHT22;59977;48.782;9.190;2024-03-29T20:26:10;14.10;99.90
24632;DHT22;59977;48.782;9.190;2024-03-29T20:28:35;14.30;99.90
24632;DHT22;59977;48.782;9.190;2024-03-29T20:31:01;14.10;99.90
24632;DHT22;59977;48.782;9.190;2024-03-29T20:33:29;14.00;99.90
24632;DHT22;59977;48.782;9.190;2024-03-29T20:35:56;14.00;99.90
24632;DHT22;59977;48.782;9.190;2024-03-29T20:38:21;14.00;99.90
24632;DHT22;59977;48.782;9.190;2024-03-29T20:40:50;14.00;99.90
24632;DHT22;59977;48.782;9.190;2024-03-29T20:43:19;13.90;99.90
24632;DHT22;59977;48.782;9.190;2024-03-29T20:45:44;13.70;99.90
24632;DHT22;59977;48.782;9.190;2024-03-29T20:48:10;13.70;99.90
24632;DHT22;59977;48.782;9.190;2024-03-29T20:50:36;13.70;99.90
24632;DHT22;59977;48.782;9.190;2024-03-29T20:53:01;13.80;99.90
24632;DHT22;59977;48.782;9.190;2024-03-29T20:55:28;13.70;99.90
24632;DHT22;59977;48.782;9.190;2024-03-29T20:57:54;13.50;99.90
24632;DHT22;59977;48.782;9.190;2024-03-29T21:00:21;13.60;99.90
24632;DHT22;59977;48.782;9.190;2024-03-29T21:02:48;13.50;99.90
24632;DHT22;59977;48.782;9.190;2024-03-29T21:05:32;13.50;99.90
24632;DHT22;59977;48.782;9.190;2024-03-29T21:08:04;13.50;99.90
24632;DHT22;59977;48.782;9.190;2024-03-29T21:10:30;13.50;99.90
24632;DHT22;59977;48.782;9.190;2024-03-29T21:12:57;13.50;99.90
24632;DHT22;59977;48.782;9.190;2024-03-29T21:15:27;13.50;99.90
24632;DHT22;59977;48.782;9.190;2024-03-29T21:17:53;13.50;99.90
24632;DHT22;59977;48.782;9.190;2024-03-29T21:20:23;13.40;99.90
24632;DHT22;59977;48.782;9.190;2024-03-29T21:22:48;13.30;99.90
24632;DHT22;59977;48.782;9.190;2024-03-29T21:25:14;13.40;99.90
24632;DHT22;59977;48.782;9.190;2024-03-29T21:27:41;13.30;99.90
24632;DHT22;59977;48.782;9.190;2024-03-29T21:30:08;13.30;99.90
24632;DHT22;59977;48.782;9.190;2024-03-29T21:32:34;13.30;99.90
24632;DHT22;59977;48.782;9.190;2024-03-29T21:35:01;13.20;99.90
24632;DHT22;59977;48.782;9.190;2024-03-29T21:37:29;13.30;99.90
24632;DHT22;59977;48.782;9.190;2024-03-29T21:39:55;13.30;99.90
24632;DHT22;59977;48.782;9.190;2024-03-29T21:42:20;13.20;99.90
24632;DHT22;59977;48.782;9.190;2024-03-29T21:44:47;13.20;99.90
24632;DHT22;59977;48.782;9.190;2024-03-29T21:47:13;13.20;99.90
24632;DHT22;59977;48.782;9.190;2024-03-29T21:49:38;13.20;99.90
24632;DHT22;59977;48.782;9.190;2024-03-29T21:52:04;13.10;99.90
24632;DHT22;59977;48.782;9.190;2024-03-29T21:54:30;13.10;99.90
24632;DHT22;59977;48.782;9.190;2024-03-29T21:56:55;13.00;99.90
24632;DHT22;59977;48.782;9.190;2024-03-29T21:59:23;13.00;99.90
24632;DHT22;59977;48.782;9.190;2024-03-29T22:01:48;13.00;99.90
24632;DHT22;59977;48.782;9.190;2024-03-29T22:04:14;13.00;99.90
24632;DHT22;59977;48.782;9.190;2024-03-29T22:06:40;12.90;99.90
24632;DHT22;59977;48.782;9.190;2024-03-29T22:09:05;12.90;99.90
24632;DHT22;59977;48.782;9.190;2024-03-29T22:11:32;12.90;99.90
24632;DHT22;59977;48.782;9.190;2024-03-29T22:13:58;12.90;99.90
24632;DHT22;59977;48.782;9.190;2024-03-29T22:16:24;12.90;99.90
24632;DHT22;59977;48.782;9.190;2024-03-29T22:18:50;12.80;99.90
24632;DHT22;59977;48.782;9.190;2024-03-29T22:21:16;12.80;99.90
24632;DHT22;59977;48.782;9.190;2024-03-29T22:23:42;12.90;99.90
24632;DHT22;59977;48.782;9.190;2024-03-29T22:26:08;12.80;99.90
24632;DHT22;59977;48.782;9.190;2024-03-29T22:28:36;12.80;99.90
24632;DHT22;59977;48.782;9.190;2024-03-29T22:31:02;12.80;99.90
24632;DHT22;59977;48.782;9.190;2024-03-29T22:33:28;12.80;99.90
24632;DHT22;59977;48.782;9.190;2024-03-29T22:35:53;12.90;99.90
24632;DHT22;59977;48.782;9.190;2024-03-29T22:38:19;12.80;99.90
24632;DHT22;59977;48.782;9.190;2024-03-29T22:40:45;12.80;99.90
24632;DHT22;59977;48.782;9.190;2024-03-29T22:43:11;12.80;99.90
24632;DHT22;59977;48.782;9.190;2024-03-29T22:45:37;12.80;99.90
24632;DHT22;59977;48.782;9.190;2024-03-29T22:48:03;12.70;99.90
24632;DHT22;59977;48.782;9.190;2024-03-29T22:50:28;12.80;99.90
24632;DHT22;59977;48.782;9.190;2024-03-29T22:52:54;12.70;99.90
24632;DHT22;59977;48.782;9.190;2024-03-29T22:55:20;12.80;99.90
24632;DHT22;59977;48.782;9.190;2024-03-29T22:57:45;12.70;99.90
24632;DHT22;59977;48.782;9.190;2024-03-29T23:00:13;12.70;99.90
24632;DHT22;59977;48.782;9.190;2024-03-29T23:02:41;12.70;99.90
24632;DHT22;59977;48.782;9.190;2024-03-29T23:05:07;12.70;99.90
24632;DHT22;59977;48.782;9.190;2024-03-29T23:07:33;12.70;99.90
24632;DHT22;59977;48.782;9.190;2024-03-29T23:10:00;12.60;99.90
24632;DHT22;59977;48.782;9.190;2024-03-29T23:12:25;12.50;99.90
24632;DHT22;59977;48.782;9.190;2024-03-29T23:14:51;12.50;99.90
24632;DHT22;59977;48.782;9.190;2024-03-29T23:17:16;12.50;99.90
24632;DHT22;59977;48.782;9.190;2024-03-29T23:19:43;12.40;99.90
24632;DHT22;59977;48.782;9.190;2024-03-29T23:22:09;12.40;99.90
24632;DHT22;59977;48.782;9.190;2024-03-29T23:24:34;12.40;99.90
24632;DHT22;59977;48.782;9.190;2024-03-29T23:27:00;12.60;99.90
24632;DHT22;59977;48.782;9.190;2024-03-29T23:29:25;12.40;99.90
24632;DHT22;59977;48.782;9.190;2024-03-29T23:31:51;12.60;99.90
24632;DHT22;59977;48.782;9.190;2024-03-29T23:34:17;12.30;99.90
24632;DHT22;59977;48.782;9.190;2024-03-29T23:36:42;12.30;99.90
24632;DHT22;59977;48.782;9.190;2024-03-29T23:39:08;12.30;99.90
24632;DHT22;59977;48.782;9.190;2024-03-29T23:41:36;12.30;99.90
24632;DHT22;59977;48.782;9.190;2024-03-29T23:44:01;13.10;99.90
24632;DHT22;59977;48.782;9.190;2024-03-29T23:46:28;12.40;99.90
24632;DHT22;59977;48.782;9.190;2024-03-29T23:48:53;12.30;99.90
24632;DHT22;59977;48.782;9.190;2024-03-29T23:51:19;12.60;99.90
24632;DHT22;59977;48.782;9.190;2024-03-29T23:53:45;12.30;99.90
24632;DHT22;59977;48.782;9.190;2024-03-29T23:56:10;12.30;99.90
24632;DHT22;59977;48.782;9.190;2024-03-29T23:58:36;12.30;99.90
